sensor_id;sensor_type;location;lat;lon;timestamp;P1;durP1;ratioP1;P2;durP2;ratioP2
72603;SDS011;60645;56.968;24.196;2022-07-23T00:00:18;6.10;;;4.90;;
72603;SDS011;60645;56.968;24.196;2022-07-23T00:02:46;5.45;;;4.93;;
72603;SDS011;60645;56.968;24.196;2022-07-23T00:05:13;7.07;;;5.05;;
72603;SDS011;60645;56.968;24.196;2022-07-23T00:07:40;6.47;;;5.60;;
72603;SDS011;60645;56.968;24.196;2022-07-23T00:10:08;5.97;;;5.32;;
72603;SDS011;60645;56.968;24.196;2022-07-23T00:12:35;8.20;;;5.53;;
72603;SDS011;60645;56.968;24.196;2022-07-23T00:15:16;6.00;;;4.93;;
72603;SDS011;60645;56.968;24.196;2022-07-23T00:17:43;5.43;;;4.90;;
72603;SDS011;60645;56.968;24.196;2022-07-23T00:20:09;6.43;;;5.38;;
72603;SDS011;60645;56.968;24.196;2022-07-23T00:22:44;6.93;;;5.03;;
72603;SDS011;60645;56.968;24.196;2022-07-23T00:25:17;6.53;;;5.10;;
72603;SDS011;60645;56.968;24.196;2022-07-23T00:28:00;6.25;;;5.13;;
72603;SDS011;60645;56.968;24.196;2022-07-23T00:30:28;7.95;;;5.05;;
72603;SDS011;60645;56.968;24.196;2022-07-23T00:33:00;6.18;;;5.20;;
72603;SDS011;60645;56.968;24.196;2022-07-23T00:35:30;6.05;;;4.82;;
72603;SDS011;60645;56.968;24.196;2022-07-23T00:37:58;7.82;;;5.28;;
72603;SDS011;60645;56.968;24.196;2022-07-23T00:40:26;6.05;;;5.22;;
72603;SDS011;60645;56.968;24.196;2022-07-23T00:42:54;8.32;;;5.35;;
72603;SDS011;60645;56.968;24.196;2022-07-23T00:45:21;6.90;;;4.82;;
72603;SDS011;60645;56.968;24.196;2022-07-23T00:47:49;7.03;;;3.92;;
72603;SDS011;60645;56.968;24.196;2022-07-23T00:50:16;5.32;;;4.82;;
72603;SDS011;60645;56.968;24.196;2022-07-23T00:52:43;6.25;;;5.65;;
72603;SDS011;60645;56.968;24.196;2022-07-23T00:55:11;7.70;;;5.43;;
72603;SDS011;60645;56.968;24.196;2022-07-23T00:57:39;8.60;;;5.45;;
72603;SDS011;60645;56.968;24.196;2022-07-23T01:00:08;8.32;;;5.03;;
72603;SDS011;60645;56.968;24.196;2022-07-23T01:02:39;5.88;;;5.22;;
72603;SDS011;60645;56.968;24.196;2022-07-23T01:05:07;6.03;;;5.22;;
72603;SDS011;60645;56.968;24.196;2022-07-23T01:07:35;7.15;;;5.18;;
72603;SDS011;60645;56.968;24.196;2022-07-23T01:10:03;6.80;;;5.95;;
72603;SDS011;60645;56.968;24.196;2022-07-23T01:12:52;5.35;;;4.18;;
72603;SDS011;60645;56.968;24.196;2022-07-23T01:15:19;6.18;;;5.57;;
72603;SDS011;60645;56.968;24.196;2022-07-23T01:17:46;8.27;;;5.45;;
72603;SDS011;60645;56.968;24.196;2022-07-23T01:20:13;6.25;;;5.13;;
72603;SDS011;60645;56.968;24.196;2022-07-23T01:22:40;7.43;;;6.13;;
72603;SDS011;60645;56.968;24.196;2022-07-23T01:25:07;8.18;;;6.72;;
72603;SDS011;60645;56.968;24.196;2022-07-23T01:27:34;7.32;;;6.05;;
72603;SDS011;60645;56.968;24.196;2022-07-23T01:30:01;8.25;;;5.75;;
72603;SDS011;60645;56.968;24.196;2022-07-23T01:32:29;9.13;;;6.30;;
72603;SDS011;60645;56.968;24.196;2022-07-23T01:34:56;7.60;;;6.13;;
72603;SDS011;60645;56.968;24.196;2022-07-23T01:37:23;8.10;;;6.03;;
72603;SDS011;60645;56.968;24.196;2022-07-23T01:39:49;6.45;;;5.72;;
72603;SDS011;60645;56.968;24.196;2022-07-23T01:42:16;6.68;;;5.80;;
72603;SDS011;60645;56.968;24.196;2022-07-23T01:44:45;10.25;;;5.75;;
72603;SDS011;60645;56.968;24.196;2022-07-23T01:47:12;6.35;;;5.40;;
72603;SDS011;60645;56.968;24.196;2022-07-23T01:49:39;6.60;;;5.65;;
72603;SDS011;60645;56.968;24.196;2022-07-23T01:52:06;6.60;;;5.63;;
72603;SDS011;60645;56.968;24.196;2022-07-23T01:54:37;7.20;;;6.40;;
72603;SDS011;60645;56.968;24.196;2022-07-23T01:57:06;6.97;;;5.75;;
72603;SDS011;60645;56.968;24.196;2022-07-23T01:59:33;6.00;;;5.40;;
72603;SDS011;60645;56.968;24.196;2022-07-23T02:02:01;6.78;;;4.75;;
72603;SDS011;60645;56.968;24.196;2022-07-23T02:04:30;6.95;;;5.97;;
72603;SDS011;60645;56.968;24.196;2022-07-23T02:06:58;6.60;;;5.38;;
72603;SDS011;60645;56.968;24.196;2022-07-23T02:09:24;8.70;;;5.80;;
72603;SDS011;60645;56.968;24.196;2022-07-23T02:11:51;7.82;;;5.55;;
72603;SDS011;60645;56.968;24.196;2022-07-23T02:14:18;9.50;;;6.15;;
72603;SDS011;60645;56.968;24.196;2022-07-23T02:16:45;7.80;;;5.53;;
72603;SDS011;60645;56.968;24.196;2022-07-23T02:19:12;7.68;;;5.53;;
72603;SDS011;60645;56.968;24.196;2022-07-23T02:21:39;8.02;;;5.57;;
72603;SDS011;60645;56.968;24.196;2022-07-23T02:24:06;6.70;;;5.03;;
72603;SDS011;60645;56.968;24.196;2022-07-23T02:26:33;9.45;;;5.78;;
72603;SDS011;60645;56.968;24.196;2022-07-23T02:29:02;6.25;;;5.07;;
72603;SDS011;60645;56.968;24.196;2022-07-23T02:31:30;6.55;;;5.20;;
72603;SDS011;60645;56.968;24.196;2022-07-23T02:33:58;6.82;;;5.00;;
72603;SDS011;60645;56.968;24.196;2022-07-23T02:36:25;7.05;;;5.07;;
72603;SDS011;60645;56.968;24.196;2022-07-23T02:38:52;7.00;;;4.88;;
72603;SDS011;60645;56.968;24.196;2022-07-23T02:41:19;6.28;;;4.55;;
72603;SDS011;60645;56.968;24.196;2022-07-23T02:43:46;5.88;;;4.80;;
72603;SDS011;60645;56.968;24.196;2022-07-23T02:46:13;5.80;;;4.35;;
72603;SDS011;60645;56.968;24.196;2022-07-23T02:48:40;6.30;;;4.25;;
72603;SDS011;60645;56.968;24.196;2022-07-23T02:51:07;7.30;;;4.80;;
72603;SDS011;60645;56.968;24.196;2022-07-23T02:53:40;6.30;;;3.78;;
72603;SDS011;60645;56.968;24.196;2022-07-23T02:56:07;6.57;;;5.07;;
72603;SDS011;60645;56.968;24.196;2022-07-23T02:58:34;6.93;;;4.63;;
72603;SDS011;60645;56.968;24.196;2022-07-23T03:01:01;5.63;;;4.85;;
72603;SDS011;60645;56.968;24.196;2022-07-23T03:03:28;4.90;;;4.47;;
72603;SDS011;60645;56.968;24.196;2022-07-23T03:05:55;6.10;;;4.78;;
72603;SDS011;60645;56.968;24.196;2022-07-23T03:08:22;6.18;;;4.70;;
72603;SDS011;60645;56.968;24.196;2022-07-23T03:10:49;6.28;;;4.80;;
72603;SDS011;60645;56.968;24.196;2022-07-23T03:13:16;5.90;;;4.57;;
72603;SDS011;60645;56.968;24.196;2022-07-23T03:15:43;6.10;;;4.20;;
72603;SDS011;60645;56.968;24.196;2022-07-23T03:18:10;5.15;;;4.60;;
72603;SDS011;60645;56.968;24.196;2022-07-23T03:20:37;5.05;;;4.53;;
72603;SDS011;60645;56.968;24.196;2022-07-23T03:23:04;5.85;;;5.25;;
72603;SDS011;60645;56.968;24.196;2022-07-23T03:25:31;5.35;;;4.85;;
72603;SDS011;60645;56.968;24.196;2022-07-23T03:27:58;5.20;;;4.70;;
72603;SDS011;60645;56.968;24.196;2022-07-23T03:30:25;6.53;;;5.53;;
72603;SDS011;60645;56.968;24.196;2022-07-23T03:32:51;6.30;;;4.78;;
72603;SDS011;60645;56.968;24.196;2022-07-23T03:35:18;8.00;;;5.15;;
72603;SDS011;60645;56.968;24.196;2022-07-23T03:37:45;6.05;;;5.20;;
72603;SDS011;60645;56.968;24.196;2022-07-23T03:40:12;7.45;;;5.03;;
72603;SDS011;60645;56.968;24.196;2022-07-23T03:42:39;8.48;;;5.65;;
72603;SDS011;60645;56.968;24.196;2022-07-23T03:45:08;6.82;;;5.45;;
72603;SDS011;60645;56.968;24.196;2022-07-23T03:47:36;9.30;;;7.60;;
72603;SDS011;60645;56.968;24.196;2022-07-23T03:50:03;6.78;;;4.78;;
72603;SDS011;60645;56.968;24.196;2022-07-23T03:52:30;9.43;;;5.82;;
72603;SDS011;60645;56.968;24.196;2022-07-23T03:54:57;7.72;;;6.45;;
72603;SDS011;60645;56.968;24.196;2022-07-23T03:57:24;7.00;;;5.90;;
72603;SDS011;60645;56.968;24.196;2022-07-23T03:59:51;7.35;;;5.63;;
72603;SDS011;60645;56.968;24.196;2022-07-23T04:02:18;7.32;;;6.03;;
72603;SDS011;60645;56.968;24.196;2022-07-23T04:04:45;8.18;;;6.50;;
72603;SDS011;60645;56.968;24.196;2022-07-23T04:07:13;8.70;;;6.03;;
72603;SDS011;60645;56.968;24.196;2022-07-23T04:09:40;11.48;;;6.38;;
72603;SDS011;60645;56.968;24.196;2022-07-23T04:12:11;8.65;;;6.07;;
72603;SDS011;60645;56.968;24.196;2022-07-23T04:14:38;10.85;;;5.78;;
72603;SDS011;60645;56.968;24.196;2022-07-23T04:17:05;13.23;;;6.28;;
72603;SDS011;60645;56.968;24.196;2022-07-23T04:19:34;8.82;;;6.30;;
72603;SDS011;60645;56.968;24.196;2022-07-23T04:22:06;9.18;;;7.07;;
72603;SDS011;60645;56.968;24.196;2022-07-23T04:24:34;11.77;;;7.45;;
72603;SDS011;60645;56.968;24.196;2022-07-23T04:27:01;10.60;;;6.20;;
72603;SDS011;60645;56.968;24.196;2022-07-23T04:29:29;11.32;;;7.00;;
72603;SDS011;60645;56.968;24.196;2022-07-23T04:31:56;8.73;;;7.55;;
72603;SDS011;60645;56.968;24.196;2022-07-23T04:34:23;8.95;;;7.32;;
72603;SDS011;60645;56.968;24.196;2022-07-23T04:36:52;10.07;;;7.18;;
72603;SDS011;60645;56.968;24.196;2022-07-23T04:39:20;12.18;;;6.82;;
72603;SDS011;60645;56.968;24.196;2022-07-23T04:41:47;9.43;;;6.97;;
72603;SDS011;60645;56.968;24.196;2022-07-23T04:44:13;8.45;;;7.55;;
72603;SDS011;60645;56.968;24.196;2022-07-23T04:46:40;10.90;;;6.95;;
72603;SDS011;60645;56.968;24.196;2022-07-23T04:49:08;10.30;;;7.40;;
72603;SDS011;60645;56.968;24.196;2022-07-23T04:51:35;14.63;;;7.90;;
72603;SDS011;60645;56.968;24.196;2022-07-23T04:54:02;9.60;;;7.47;;
72603;SDS011;60645;56.968;24.196;2022-07-23T04:56:29;9.77;;;7.63;;
72603;SDS011;60645;56.968;24.196;2022-07-23T04:58:56;9.27;;;7.28;;
72603;SDS011;60645;56.968;24.196;2022-07-23T05:01:24;12.32;;;7.30;;
72603;SDS011;60645;56.968;24.196;2022-07-23T05:03:51;10.10;;;6.80;;
72603;SDS011;60645;56.968;24.196;2022-07-23T05:06:18;9.52;;;7.20;;
72603;SDS011;60645;56.968;24.196;2022-07-23T05:08:45;9.25;;;7.53;;
72603;SDS011;60645;56.968;24.196;2022-07-23T05:11:12;7.95;;;6.90;;
72603;SDS011;60645;56.968;24.196;2022-07-23T05:13:39;9.15;;;6.90;;
72603;SDS011;60645;56.968;24.196;2022-07-23T05:16:06;9.77;;;6.60;;
72603;SDS011;60645;56.968;24.196;2022-07-23T05:18:33;8.93;;;7.22;;
72603;SDS011;60645;56.968;24.196;2022-07-23T05:21:00;9.70;;;6.57;;
72603;SDS011;60645;56.968;24.196;2022-07-23T05:23:27;7.35;;;6.25;;
72603;SDS011;60645;56.968;24.196;2022-07-23T05:25:54;8.88;;;6.18;;
72603;SDS011;60645;56.968;24.196;2022-07-23T05:28:21;7.88;;;5.88;;
72603;SDS011;60645;56.968;24.196;2022-07-23T05:30:48;7.38;;;6.45;;
72603;SDS011;60645;56.968;24.196;2022-07-23T05:33:17;6.95;;;6.25;;
72603;SDS011;60645;56.968;24.196;2022-07-23T05:35:45;9.23;;;6.53;;
72603;SDS011;60645;56.968;24.196;2022-07-23T05:38:13;8.45;;;6.80;;
72603;SDS011;60645;56.968;24.196;2022-07-23T05:40:39;9.10;;;6.45;;
72603;SDS011;60645;56.968;24.196;2022-07-23T05:43:06;8.35;;;6.35;;
72603;SDS011;60645;56.968;24.196;2022-07-23T05:45:33;7.78;;;6.20;;
72603;SDS011;60645;56.968;24.196;2022-07-23T05:48:01;6.50;;;5.60;;
72603;SDS011;60645;56.968;24.196;2022-07-23T05:50:28;6.78;;;5.20;;
72603;SDS011;60645;56.968;24.196;2022-07-23T05:52:54;6.47;;;5.00;;
72603;SDS011;60645;56.968;24.196;2022-07-23T05:55:21;7.05;;;5.57;;
72603;SDS011;60645;56.968;24.196;2022-07-23T05:57:48;8.52;;;6.30;;
72603;SDS011;60645;56.968;24.196;2022-07-23T06:00:15;7.50;;;5.28;;
72603;SDS011;60645;56.968;24.196;2022-07-23T06:02:42;7.15;;;5.57;;
72603;SDS011;60645;56.968;24.196;2022-07-23T06:05:09;6.30;;;3.70;;
72603;SDS011;60645;56.968;24.196;2022-07-23T06:07:36;7.47;;;6.00;;
72603;SDS011;60645;56.968;24.196;2022-07-23T06:10:04;10.40;;;6.50;;
72603;SDS011;60645;56.968;24.196;2022-07-23T06:12:31;11.90;;;5.43;;
72603;SDS011;60645;56.968;24.196;2022-07-23T06:14:58;25.92;;;6.13;;
72603;SDS011;60645;56.968;24.196;2022-07-23T06:17:26;20.27;;;5.55;;
72603;SDS011;60645;56.968;24.196;2022-07-23T06:19:53;13.65;;;5.28;;
72603;SDS011;60645;56.968;24.196;2022-07-23T06:22:20;11.55;;;5.60;;
72603;SDS011;60645;56.968;24.196;2022-07-23T06:24:48;19.55;;;5.70;;
72603;SDS011;60645;56.968;24.196;2022-07-23T06:27:18;12.93;;;5.35;;
72603;SDS011;60645;56.968;24.196;2022-07-23T06:29:51;25.10;;;5.80;;
72603;SDS011;60645;56.968;24.196;2022-07-23T06:32:18;12.85;;;4.85;;
72603;SDS011;60645;56.968;24.196;2022-07-23T06:34:45;15.48;;;5.43;;
72603;SDS011;60645;56.968;24.196;2022-07-23T06:37:14;17.52;;;5.38;;
72603;SDS011;60645;56.968;24.196;2022-07-23T06:39:42;20.63;;;5.03;;
72603;SDS011;60645;56.968;24.196;2022-07-23T06:42:10;13.93;;;7.13;;
72603;SDS011;60645;56.968;24.196;2022-07-23T06:44:38;12.27;;;4.88;;
72603;SDS011;60645;56.968;24.196;2022-07-23T06:47:05;10.00;;;4.18;;
72603;SDS011;60645;56.968;24.196;2022-07-23T06:49:32;8.80;;;4.95;;
72603;SDS011;60645;56.968;24.196;2022-07-23T06:51:59;10.15;;;5.10;;
72603;SDS011;60645;56.968;24.196;2022-07-23T06:54:26;9.48;;;4.50;;
72603;SDS011;60645;56.968;24.196;2022-07-23T06:56:53;9.65;;;4.85;;
72603;SDS011;60645;56.968;24.196;2022-07-23T06:59:20;7.15;;;4.72;;
72603;SDS011;60645;56.968;24.196;2022-07-23T07:01:46;7.53;;;4.90;;
72603;SDS011;60645;56.968;24.196;2022-07-23T07:04:13;6.47;;;4.38;;
72603;SDS011;60645;56.968;24.196;2022-07-23T07:06:40;6.30;;;4.70;;
72603;SDS011;60645;56.968;24.196;2022-07-23T07:09:07;5.07;;;4.57;;
72603;SDS011;60645;56.968;24.196;2022-07-23T07:11:34;7.60;;;4.63;;
72603;SDS011;60645;56.968;24.196;2022-07-23T07:14:01;5.63;;;4.85;;
72603;SDS011;60645;56.968;24.196;2022-07-23T07:16:28;5.18;;;4.45;;
72603;SDS011;60645;56.968;24.196;2022-07-23T07:18:58;5.70;;;4.53;;
72603;SDS011;60645;56.968;24.196;2022-07-23T07:21:26;7.47;;;4.78;;
72603;SDS011;60645;56.968;24.196;2022-07-23T07:23:52;3.90;;;3.53;;
72603;SDS011;60645;56.968;24.196;2022-07-23T07:26:19;4.57;;;3.38;;
72603;SDS011;60645;56.968;24.196;2022-07-23T07:28:46;5.53;;;4.80;;
72603;SDS011;60645;56.968;24.196;2022-07-23T07:31:13;4.90;;;4.40;;
72603;SDS011;60645;56.968;24.196;2022-07-23T07:33:41;6.03;;;4.40;;
72603;SDS011;60645;56.968;24.196;2022-07-23T07:36:08;5.72;;;4.18;;
72603;SDS011;60645;56.968;24.196;2022-07-23T07:38:35;5.47;;;4.53;;
72603;SDS011;60645;56.968;24.196;2022-07-23T07:41:02;5.07;;;4.43;;
72603;SDS011;60645;56.968;24.196;2022-07-23T07:43:29;7.55;;;5.32;;
72603;SDS011;60645;56.968;24.196;2022-07-23T07:45:56;6.38;;;4.47;;
72603;SDS011;60645;56.968;24.196;2022-07-23T07:48:23;5.63;;;5.13;;
72603;SDS011;60645;56.968;24.196;2022-07-23T07:50:50;4.57;;;4.18;;
72603;SDS011;60645;56.968;24.196;2022-07-23T07:53:17;4.88;;;4.47;;
72603;SDS011;60645;56.968;24.196;2022-07-23T07:55:45;6.25;;;4.90;;
72603;SDS011;60645;56.968;24.196;2022-07-23T07:58:17;8.18;;;7.38;;
72603;SDS011;60645;56.968;24.196;2022-07-23T08:00:44;7.00;;;5.80;;
72603;SDS011;60645;56.968;24.196;2022-07-23T08:03:11;6.22;;;5.55;;
72603;SDS011;60645;56.968;24.196;2022-07-23T08:05:39;8.35;;;7.55;;
72603;SDS011;60645;56.968;24.196;2022-07-23T08:08:06;12.85;;;10.35;;
72603;SDS011;60645;56.968;24.196;2022-07-23T08:10:32;9.88;;;8.88;;
72603;SDS011;60645;56.968;24.196;2022-07-23T08:12:59;6.25;;;5.68;;
72603;SDS011;60645;56.968;24.196;2022-07-23T08:15:27;5.78;;;5.18;;
72603;SDS011;60645;56.968;24.196;2022-07-23T08:17:56;9.73;;;8.73;;
72603;SDS011;60645;56.968;24.196;2022-07-23T08:20:24;6.47;;;5.88;;
72603;SDS011;60645;56.968;24.196;2022-07-23T08:23:02;5.93;;;5.35;;
72603;SDS011;60645;56.968;24.196;2022-07-23T08:25:35;6.13;;;5.47;;
72603;SDS011;60645;56.968;24.196;2022-07-23T08:28:08;6.03;;;5.45;;
72603;SDS011;60645;56.968;24.196;2022-07-23T08:30:36;8.25;;;7.35;;
72603;SDS011;60645;56.968;24.196;2022-07-23T08:33:08;7.70;;;6.95;;
72603;SDS011;60645;56.968;24.196;2022-07-23T08:35:59;10.13;;;7.88;;
72603;SDS011;60645;56.968;24.196;2022-07-23T08:40:56;8.25;;;7.45;;
72603;SDS011;60645;56.968;24.196;2022-07-23T08:43:25;7.43;;;6.22;;
72603;SDS011;60645;56.968;24.196;2022-07-23T08:45:54;7.20;;;6.55;;
72603;SDS011;60645;56.968;24.196;2022-07-23T08:48:24;7.63;;;6.88;;
72603;SDS011;60645;56.968;24.196;2022-07-23T08:50:53;7.60;;;6.90;;
72603;SDS011;60645;56.968;24.196;2022-07-23T08:53:25;8.20;;;6.85;;
72603;SDS011;60645;56.968;24.196;2022-07-23T08:55:54;12.20;;;11.00;;
72603;SDS011;60645;56.968;24.196;2022-07-23T08:58:22;11.77;;;10.00;;
72603;SDS011;60645;56.968;24.196;2022-07-23T09:00:54;8.38;;;7.57;;
72603;SDS011;60645;56.968;24.196;2022-07-23T09:03:33;7.00;;;6.10;;
72603;SDS011;60645;56.968;24.196;2022-07-23T09:08:39;8.63;;;6.57;;
72603;SDS011;60645;56.968;24.196;2022-07-23T09:11:08;8.48;;;7.40;;
72603;SDS011;60645;56.968;24.196;2022-07-23T09:16:31;9.02;;;8.10;;
72603;SDS011;60645;56.968;24.196;2022-07-23T09:18:59;8.40;;;7.60;;
72603;SDS011;60645;56.968;24.196;2022-07-23T09:24:05;9.73;;;8.82;;
72603;SDS011;60645;56.968;24.196;2022-07-23T09:26:43;12.07;;;8.85;;
72603;SDS011;60645;56.968;24.196;2022-07-23T09:29:23;10.98;;;9.45;;
72603;SDS011;60645;56.968;24.196;2022-07-23T09:34:30;8.65;;;7.70;;
72603;SDS011;60645;56.968;24.196;2022-07-23T09:37:12;10.30;;;8.70;;
72603;SDS011;60645;56.968;24.196;2022-07-23T09:39:41;8.38;;;7.55;;
72603;SDS011;60645;56.968;24.196;2022-07-23T09:42:13;7.97;;;7.15;;
72603;SDS011;60645;56.968;24.196;2022-07-23T09:44:41;7.45;;;6.70;;
72603;SDS011;60645;56.968;24.196;2022-07-23T09:47:09;7.50;;;6.40;;
72603;SDS011;60645;56.968;24.196;2022-07-23T09:49:36;6.13;;;5.53;;
72603;SDS011;60645;56.968;24.196;2022-07-23T09:52:03;6.57;;;5.20;;
72603;SDS011;60645;56.968;24.196;2022-07-23T09:54:34;6.60;;;5.95;;
72603;SDS011;60645;56.968;24.196;2022-07-23T09:57:09;7.55;;;5.82;;
72603;SDS011;60645;56.968;24.196;2022-07-23T09:59:42;5.55;;;5.05;;
72603;SDS011;60645;56.968;24.196;2022-07-23T10:02:11;7.38;;;5.65;;
72603;SDS011;60645;56.968;24.196;2022-07-23T10:04:39;8.63;;;5.90;;
72603;SDS011;60645;56.968;24.196;2022-07-23T10:07:08;7.05;;;5.63;;
72603;SDS011;60645;56.968;24.196;2022-07-23T10:09:37;5.88;;;5.20;;
72603;SDS011;60645;56.968;24.196;2022-07-23T10:12:13;7.50;;;5.35;;
72603;SDS011;60645;56.968;24.196;2022-07-23T10:14:43;7.10;;;5.90;;
72603;SDS011;60645;56.968;24.196;2022-07-23T10:17:11;6.78;;;6.05;;
72603;SDS011;60645;56.968;24.196;2022-07-23T10:19:38;7.03;;;6.32;;
72603;SDS011;60645;56.968;24.196;2022-07-23T10:22:08;7.05;;;5.88;;
72603;SDS011;60645;56.968;24.196;2022-07-23T10:27:54;6.53;;;5.35;;
72603;SDS011;60645;56.968;24.196;2022-07-23T10:30:45;5.78;;;5.18;;
72603;SDS011;60645;56.968;24.196;2022-07-23T10:34:02;7.35;;;5.03;;
72603;SDS011;60645;56.968;24.196;2022-07-23T10:36:39;6.00;;;5.40;;
72603;SDS011;60645;56.968;24.196;2022-07-23T10:41:50;7.45;;;6.22;;
72603;SDS011;60645;56.968;24.196;2022-07-23T10:44:20;6.47;;;5.25;;
72603;SDS011;60645;56.968;24.196;2022-07-23T10:46:56;5.13;;;4.63;;
72603;SDS011;60645;56.968;24.196;2022-07-23T10:49:31;9.10;;;3.60;;
72603;SDS011;60645;56.968;24.196;2022-07-23T10:57:46;6.35;;;4.70;;
72603;SDS011;60645;56.968;24.196;2022-07-23T11:00:16;5.82;;;3.75;;
72603;SDS011;60645;56.968;24.196;2022-07-23T11:02:49;4.95;;;4.43;;
72603;SDS011;60645;56.968;24.196;2022-07-23T11:05:25;5.07;;;4.13;;
72603;SDS011;60645;56.968;24.196;2022-07-23T11:10:37;6.15;;;2.38;;
72603;SDS011;60645;56.968;24.196;2022-07-23T11:16:12;5.85;;;4.78;;
72603;SDS011;60645;56.968;24.196;2022-07-23T11:31:52;3.67;;;2.50;;
72603;SDS011;60645;56.968;24.196;2022-07-23T11:36:59;4.57;;;2.22;;
72603;SDS011;60645;56.968;24.196;2022-07-23T11:39:27;6.45;;;3.45;;
72603;SDS011;60645;56.968;24.196;2022-07-23T11:41:55;5.70;;;3.35;;
72603;SDS011;60645;56.968;24.196;2022-07-23T11:44:24;6.18;;;3.65;;
72603;SDS011;60645;56.968;24.196;2022-07-23T11:47:14;5.32;;;3.55;;
72603;SDS011;60645;56.968;24.196;2022-07-23T11:49:52;6.28;;;2.63;;
72603;SDS011;60645;56.968;24.196;2022-07-23T11:52:23;7.15;;;2.33;;
72603;SDS011;60645;56.968;24.196;2022-07-23T11:57:27;4.70;;;2.38;;
72603;SDS011;60645;56.968;24.196;2022-07-23T11:59:56;5.47;;;3.08;;
72603;SDS011;60645;56.968;24.196;2022-07-23T12:02:30;4.32;;;2.90;;
72603;SDS011;60645;56.968;24.196;2022-07-23T12:04:57;4.03;;;2.83;;
72603;SDS011;60645;56.968;24.196;2022-07-23T12:07:35;5.30;;;2.88;;
72603;SDS011;60645;56.968;24.196;2022-07-23T12:12:49;4.60;;;2.65;;
72603;SDS011;60645;56.968;24.196;2022-07-23T12:15:21;5.53;;;2.25;;
72603;SDS011;60645;56.968;24.196;2022-07-23T12:17:52;5.63;;;2.72;;
72603;SDS011;60645;56.968;24.196;2022-07-23T12:20:33;4.13;;;2.65;;
72603;SDS011;60645;56.968;24.196;2022-07-23T12:23:09;4.65;;;3.05;;
72603;SDS011;60645;56.968;24.196;2022-07-23T12:25:41;6.25;;;2.33;;
72603;SDS011;60645;56.968;24.196;2022-07-23T12:28:11;5.63;;;2.30;;
72603;SDS011;60645;56.968;24.196;2022-07-23T12:33:26;5.72;;;2.58;;
72603;SDS011;60645;56.968;24.196;2022-07-23T12:35:56;4.55;;;2.70;;
72603;SDS011;60645;56.968;24.196;2022-07-23T12:38:25;3.75;;;2.33;;
72603;SDS011;60645;56.968;24.196;2022-07-23T12:40:54;3.92;;;2.50;;
72603;SDS011;60645;56.968;24.196;2022-07-23T12:43:24;4.25;;;2.40;;
72603;SDS011;60645;56.968;24.196;2022-07-23T12:48:30;4.25;;;2.80;;
72603;SDS011;60645;56.968;24.196;2022-07-23T12:51:04;5.38;;;2.80;;
72603;SDS011;60645;56.968;24.196;2022-07-23T12:56:06;3.55;;;1.75;;
72603;SDS011;60645;56.968;24.196;2022-07-23T12:58:51;4.90;;;2.83;;
72603;SDS011;60645;56.968;24.196;2022-07-23T13:06:30;3.80;;;1.75;;
72603;SDS011;60645;56.968;24.196;2022-07-23T13:08:59;4.10;;;2.80;;
72603;SDS011;60645;56.968;24.196;2022-07-23T13:11:28;8.05;;;3.55;;
72603;SDS011;60645;56.968;24.196;2022-07-23T13:13:56;6.00;;;3.15;;
72603;SDS011;60645;56.968;24.196;2022-07-23T13:16:23;5.15;;;3.00;;
72603;SDS011;60645;56.968;24.196;2022-07-23T13:21:20;3.72;;;2.85;;
72603;SDS011;60645;56.968;24.196;2022-07-23T13:23:47;5.90;;;2.50;;
72603;SDS011;60645;56.968;24.196;2022-07-23T13:26:15;4.03;;;2.20;;
72603;SDS011;60645;56.968;24.196;2022-07-23T13:28:42;4.10;;;2.60;;
72603;SDS011;60645;56.968;24.196;2022-07-23T13:31:09;6.03;;;2.80;;
72603;SDS011;60645;56.968;24.196;2022-07-23T13:33:36;4.47;;;2.65;;
72603;SDS011;60645;56.968;24.196;2022-07-23T13:36:04;3.63;;;2.42;;
72603;SDS011;60645;56.968;24.196;2022-07-23T13:38:31;5.63;;;2.50;;
72603;SDS011;60645;56.968;24.196;2022-07-23T13:40:59;4.65;;;2.58;;
72603;SDS011;60645;56.968;24.196;2022-07-23T13:43:26;7.22;;;2.92;;
72603;SDS011;60645;56.968;24.196;2022-07-23T13:45:58;5.45;;;2.83;;
72603;SDS011;60645;56.968;24.196;2022-07-23T13:48:26;5.80;;;2.60;;
72603;SDS011;60645;56.968;24.196;2022-07-23T13:50:53;5.43;;;3.08;;
72603;SDS011;60645;56.968;24.196;2022-07-23T13:53:21;7.18;;;2.90;;
72603;SDS011;60645;56.968;24.196;2022-07-23T13:55:51;4.05;;;2.83;;
72603;SDS011;60645;56.968;24.196;2022-07-23T13:58:20;3.65;;;2.35;;
72603;SDS011;60645;56.968;24.196;2022-07-23T14:00:51;6.25;;;2.42;;
72603;SDS011;60645;56.968;24.196;2022-07-23T14:03:20;5.57;;;2.67;;
72603;SDS011;60645;56.968;24.196;2022-07-23T14:05:53;4.93;;;2.28;;
72603;SDS011;60645;56.968;24.196;2022-07-23T14:08:22;4.07;;;2.53;;
72603;SDS011;60645;56.968;24.196;2022-07-23T14:10:49;5.13;;;2.35;;
72603;SDS011;60645;56.968;24.196;2022-07-23T14:13:16;3.60;;;2.50;;
72603;SDS011;60645;56.968;24.196;2022-07-23T14:15:47;4.15;;;2.53;;
72603;SDS011;60645;56.968;24.196;2022-07-23T14:18:15;6.60;;;2.80;;
72603;SDS011;60645;56.968;24.196;2022-07-23T14:20:43;3.63;;;2.20;;
72603;SDS011;60645;56.968;24.196;2022-07-23T14:23:10;4.18;;;2.80;;
72603;SDS011;60645;56.968;24.196;2022-07-23T14:25:39;3.72;;;2.08;;
72603;SDS011;60645;56.968;24.196;2022-07-23T14:28:06;7.70;;;2.50;;
72603;SDS011;60645;56.968;24.196;2022-07-23T14:30:34;4.05;;;2.20;;
72603;SDS011;60645;56.968;24.196;2022-07-23T14:33:01;4.88;;;2.53;;
72603;SDS011;60645;56.968;24.196;2022-07-23T14:35:28;4.28;;;2.85;;
72603;SDS011;60645;56.968;24.196;2022-07-23T14:37:55;5.28;;;3.17;;
72603;SDS011;60645;56.968;24.196;2022-07-23T14:40:23;4.25;;;2.30;;
72603;SDS011;60645;56.968;24.196;2022-07-23T14:42:50;5.32;;;2.40;;
72603;SDS011;60645;56.968;24.196;2022-07-23T14:45:17;3.13;;;2.05;;
72603;SDS011;60645;56.968;24.196;2022-07-23T14:47:44;3.78;;;2.58;;
72603;SDS011;60645;56.968;24.196;2022-07-23T14:50:13;5.00;;;2.90;;
72603;SDS011;60645;56.968;24.196;2022-07-23T14:52:40;4.25;;;2.50;;
72603;SDS011;60645;56.968;24.196;2022-07-23T14:55:07;4.10;;;2.40;;
72603;SDS011;60645;56.968;24.196;2022-07-23T14:57:35;4.85;;;2.58;;
72603;SDS011;60645;56.968;24.196;2022-07-23T15:00:03;3.78;;;2.42;;
72603;SDS011;60645;56.968;24.196;2022-07-23T15:02:31;7.75;;;2.97;;
72603;SDS011;60645;56.968;24.196;2022-07-23T15:04:58;6.63;;;2.60;;
72603;SDS011;60645;56.968;24.196;2022-07-23T15:07:27;5.18;;;2.42;;
72603;SDS011;60645;56.968;24.196;2022-07-23T15:09:57;5.55;;;2.20;;
72603;SDS011;60645;56.968;24.196;2022-07-23T15:12:24;3.70;;;2.22;;
72603;SDS011;60645;56.968;24.196;2022-07-23T15:14:51;7.35;;;2.50;;
72603;SDS011;60645;56.968;24.196;2022-07-23T15:17:18;6.10;;;2.13;;
72603;SDS011;60645;56.968;24.196;2022-07-23T15:19:46;5.38;;;2.30;;
72603;SDS011;60645;56.968;24.196;2022-07-23T15:22:15;3.53;;;1.45;;
72603;SDS011;60645;56.968;24.196;2022-07-23T15:24:42;3.70;;;1.90;;
72603;SDS011;60645;56.968;24.196;2022-07-23T15:27:09;5.45;;;2.33;;
72603;SDS011;60645;56.968;24.196;2022-07-23T15:29:36;4.15;;;2.53;;
72603;SDS011;60645;56.968;24.196;2022-07-23T15:32:03;5.72;;;2.10;;
72603;SDS011;60645;56.968;24.196;2022-07-23T15:34:30;3.17;;;2.00;;
72603;SDS011;60645;56.968;24.196;2022-07-23T15:36:59;3.50;;;2.35;;
72603;SDS011;60645;56.968;24.196;2022-07-23T15:39:36;4.60;;;2.92;;
72603;SDS011;60645;56.968;24.196;2022-07-23T15:42:03;4.63;;;2.45;;
72603;SDS011;60645;56.968;24.196;2022-07-23T15:44:38;2.92;;;2.25;;
72603;SDS011;60645;56.968;24.196;2022-07-23T15:47:05;4.05;;;2.50;;
72603;SDS011;60645;56.968;24.196;2022-07-23T15:49:38;3.08;;;2.33;;